sensor_id;sensor_type;location;lat;lon;timestamp;pressure;altitude;pressure_sealevel;temperature;humidity
10700;BME280;5401;41.986;21.452;2023-03-01T00:01:41;98792.72;;;10.90;77.82
10700;BME280;5401;41.986;21.452;2023-03-01T00:04:12;98795.84;;;10.94;78.10
10700;BME280;5401;41.986;21.452;2023-03-01T00:06:39;98807.41;;;11.07;77.63
10700;BME280;5401;41.986;21.452;2023-03-01T00:09:12;98814.00;;;11.11;77.78
10700;BME280;5401;41.986;21.452;2023-03-01T00:11:40;98804.50;;;11.08;77.78
10700;BME280;5401;41.986;21.452;2023-03-01T00:14:09;98814.41;;;11.21;77.91
10700;BME280;5401;41.986;21.452;2023-03-01T00:16:38;98811.28;;;11.04;77.89
10700;BME280;5401;41.986;21.452;2023-03-01T00:19:13;98819.75;;;10.95;77.96
10700;BME280;5401;41.986;21.452;2023-03-01T00:21:41;98806.94;;;10.84;78.04
10700;BME280;5401;41.986;21.452;2023-03-01T00:24:09;98808.19;;;10.82;78.55
10700;BME280;5401;41.986;21.452;2023-03-01T00:26:37;98813.16;;;10.91;78.56
10700;BME280;5401;41.986;21.452;2023-03-01T00:29:05;98792.53;;;10.79;78.59
10700;BME280;5401;41.986;21.452;2023-03-01T00:31:34;98799.09;;;10.70;78.29
10700;BME280;5401;41.986;21.452;2023-03-01T00:34:03;98794.34;;;10.72;78.74
10700;BME280;5401;41.986;21.452;2023-03-01T00:36:34;98808.59;;;10.85;78.85
10700;BME280;5401;41.986;21.452;2023-03-01T00:39:03;98804.50;;;10.83;78.72
10700;BME280;5401;41.986;21.452;2023-03-01T00:41:31;98796.84;;;10.80;78.90
10700;BME280;5401;41.986;21.452;2023-03-01T00:44:00;98792.53;;;10.79;78.71
10700;BME280;5401;41.986;21.452;2023-03-01T00:46:28;98782.41;;;10.74;79.10
10700;BME280;5401;41.986;21.452;2023-03-01T00:48:57;98781.81;;;10.79;78.77
10700;BME280;5401;41.986;21.452;2023-03-01T00:51:28;98790.03;;;10.77;78.70
10700;BME280;5401;41.986;21.452;2023-03-01T00:53:58;98787.56;;;10.76;78.70
10700;BME280;5401;41.986;21.452;2023-03-01T00:56:26;98791.66;;;10.66;78.50
10700;BME280;5401;41.986;21.452;2023-03-01T00:58:54;98782.34;;;10.42;78.81
10700;BME280;5401;41.986;21.452;2023-03-01T01:01:25;98771.78;;;10.28;79.22
10700;BME280;5401;41.986;21.452;2023-03-01T01:03:55;98778.75;;;10.16;79.52
10700;BME280;5401;41.986;21.452;2023-03-01T01:06:26;98779.09;;;10.07;79.63
10700;BME280;5401;41.986;21.452;2023-03-01T01:08:55;98777.38;;;9.93;80.18
10700;BME280;5401;41.986;21.452;2023-03-01T01:11:24;98774.03;;;9.85;80.34
10700;BME280;5401;41.986;21.452;2023-03-01T01:13:52;98767.22;;;9.82;80.46
10700;BME280;5401;41.986;21.452;2023-03-01T01:16:21;98772.13;;;9.79;80.78
10700;BME280;5401;41.986;21.452;2023-03-01T01:18:49;98745.94;;;9.61;80.78
10700;BME280;5401;41.986;21.452;2023-03-01T01:21:18;98762.78;;;9.62;80.71
10700;BME280;5401;41.986;21.452;2023-03-01T01:23:48;98758.44;;;9.61;80.30
10700;BME280;5401;41.986;21.452;2023-03-01T01:26:19;98753.69;;;9.57;80.46
10700;BME280;5401;41.986;21.452;2023-03-01T01:28:46;98746.50;;;9.57;80.04
10700;BME280;5401;41.986;21.452;2023-03-01T01:31:14;98749.81;;;9.59;80.87
10700;BME280;5401;41.986;21.452;2023-03-01T01:33:42;98746.13;;;9.60;80.99
10700;BME280;5401;41.986;21.452;2023-03-01T01:36:10;98739.72;;;9.55;79.92
10700;BME280;5401;41.986;21.452;2023-03-01T01:38:38;98743.19;;;9.55;80.58
10700;BME280;5401;41.986;21.452;2023-03-01T01:41:10;98702.59;;;9.39;80.45
10700;BME280;5401;41.986;21.452;2023-03-01T01:43:39;98735.56;;;9.46;80.56
10700;BME280;5401;41.986;21.452;2023-03-01T01:46:25;98746.66;;;9.49;80.72
10700;BME280;5401;41.986;21.452;2023-03-01T01:48:58;98724.13;;;9.31;80.65
10700;BME280;5401;41.986;21.452;2023-03-01T01:51:29;98737.13;;;9.34;80.62
10700;BME280;5401;41.986;21.452;2023-03-01T01:54:08;98740.59;;;9.34;80.88
10700;BME280;5401;41.986;21.452;2023-03-01T01:56:41;98736.28;;;9.33;80.75
10700;BME280;5401;41.986;21.452;2023-03-01T01:59:10;98736.66;;;9.30;81.51
10700;BME280;5401;41.986;21.452;2023-03-01T02:01:38;98738.13;;;9.33;81.21
10700;BME280;5401;41.986;21.452;2023-03-01T02:04:06;98727.59;;;9.25;81.18
10700;BME280;5401;41.986;21.452;2023-03-01T02:06:36;98734.41;;;9.27;80.34
10700;BME280;5401;41.986;21.452;2023-03-01T02:09:07;98725.72;;;9.19;80.97
10700;BME280;5401;41.986;21.452;2023-03-01T02:11:39;98729.66;;;9.23;80.58
10700;BME280;5401;41.986;21.452;2023-03-01T02:14:07;98728.16;;;9.21;81.39
10700;BME280;5401;41.986;21.452;2023-03-01T02:16:34;98718.16;;;9.02;80.63
10700;BME280;5401;41.986;21.452;2023-03-01T02:19:03;98736.88;;;9.02;81.30
10700;BME280;5401;41.986;21.452;2023-03-01T02:21:39;98735.41;;;8.99;80.96
10700;BME280;5401;41.986;21.452;2023-03-01T02:24:17;98732.34;;;9.02;82.00
10700;BME280;5401;41.986;21.452;2023-03-01T02:26:53;98725.78;;;9.05;81.83
10700;BME280;5401;41.986;21.452;2023-03-01T02:29:24;98726.41;;;9.07;82.13
10700;BME280;5401;41.986;21.452;2023-03-01T02:31:53;98726.22;;;9.08;81.13
10700;BME280;5401;41.986;21.452;2023-03-01T02:34:24;98732.84;;;9.12;82.10
10700;BME280;5401;41.986;21.452;2023-03-01T02:36:54;98736.31;;;9.13;80.73
10700;BME280;5401;41.986;21.452;2023-03-01T02:39:28;98710.13;;;8.95;81.29
10700;BME280;5401;41.986;21.452;2023-03-01T02:41:57;98736.09;;;9.08;81.66
10700;BME280;5401;41.986;21.452;2023-03-01T02:44:27;98731.72;;;9.00;81.68
10700;BME280;5401;41.986;21.452;2023-03-01T02:46:56;98733.97;;;8.97;81.17
10700;BME280;5401;41.986;21.452;2023-03-01T02:49:26;98732.25;;;8.89;81.33
10700;BME280;5401;41.986;21.452;2023-03-01T02:52:17;98740.22;;;8.83;81.33
10700;BME280;5401;41.986;21.452;2023-03-01T02:54:51;98730.13;;;8.79;82.28
10700;BME280;5401;41.986;21.452;2023-03-01T02:57:22;98722.03;;;8.72;81.09
10700;BME280;5401;41.986;21.452;2023-03-01T02:59:55;98713.78;;;8.67;82.35
10700;BME280;5401;41.986;21.452;2023-03-01T03:02:25;98721.03;;;8.73;82.16
10700;BME280;5401;41.986;21.452;2023-03-01T03:05:05;98723.09;;;8.78;81.54
10700;BME280;5401;41.986;21.452;2023-03-01T03:07:35;98714.47;;;8.76;81.35
10700;BME280;5401;41.986;21.452;2023-03-01T03:10:04;98673.38;;;8.50;81.41
10700;BME280;5401;41.986;21.452;2023-03-01T03:12:32;98719.66;;;8.84;82.56
10700;BME280;5401;41.986;21.452;2023-03-01T03:15:01;98721.72;;;8.82;82.63
10700;BME280;5401;41.986;21.452;2023-03-01T03:17:35;98708.31;;;8.75;81.75
10700;BME280;5401;41.986;21.452;2023-03-01T03:20:04;98704.38;;;8.71;81.92
10700;BME280;5401;41.986;21.452;2023-03-01T03:22:32;98708.69;;;8.72;81.87
10700;BME280;5401;41.986;21.452;2023-03-01T03:25:00;98703.78;;;8.76;82.61
10700;BME280;5401;41.986;21.452;2023-03-01T03:27:27;98697.38;;;8.70;81.73
10700;BME280;5401;41.986;21.452;2023-03-01T03:29:55;98705.44;;;8.77;82.74
10700;BME280;5401;41.986;21.452;2023-03-01T03:32:24;98691.78;;;8.65;82.47
10700;BME280;5401;41.986;21.452;2023-03-01T03:34:51;98704.56;;;8.70;82.72
10700;BME280;5401;41.986;21.452;2023-03-01T03:37:19;98706.22;;;8.71;82.76
10700;BME280;5401;41.986;21.452;2023-03-01T03:40:00;98699.16;;;8.63;82.86
10700;BME280;5401;41.986;21.452;2023-03-01T03:42:28;98701.19;;;8.61;81.98
10700;BME280;5401;41.986;21.452;2023-03-01T03:44:56;98692.06;;;8.50;82.63
10700;BME280;5401;41.986;21.452;2023-03-01T03:47:25;98683.75;;;8.38;82.13
10700;BME280;5401;41.986;21.452;2023-03-01T03:49:52;98674.59;;;8.26;82.69
10700;BME280;5401;41.986;21.452;2023-03-01T03:52:20;98688.19;;;8.31;82.17
10700;BME280;5401;41.986;21.452;2023-03-01T03:54:47;98702.53;;;8.30;82.11
10700;BME280;5401;41.986;21.452;2023-03-01T03:57:15;98705.41;;;8.29;82.37
10700;BME280;5401;41.986;21.452;2023-03-01T03:59:42;98698.59;;;8.26;82.24
10700;BME280;5401;41.986;21.452;2023-03-01T04:02:10;98702.09;;;8.27;83.09
10700;BME280;5401;41.986;21.452;2023-03-01T04:04:39;98705.75;;;8.26;82.19
10700;BME280;5401;41.986;21.452;2023-03-01T04:07:06;98710.03;;;8.20;82.40
10700;BME280;5401;41.986;21.452;2023-03-01T04:09:34;98708.34;;;8.19;83.61
10700;BME280;5401;41.986;21.452;2023-03-01T04:12:02;98702.31;;;8.11;83.38
10700;BME280;5401;41.986;21.452;2023-03-01T04:14:29;98714.72;;;8.18;82.93
10700;BME280;5401;41.986;21.452;2023-03-01T04:16:57;98719.25;;;8.18;82.93
10700;BME280;5401;41.986;21.452;2023-03-01T04:19:24;98705.63;;;8.13;83.21
10700;BME280;5401;41.986;21.452;2023-03-01T04:21:54;98726.78;;;8.15;83.17
10700;BME280;5401;41.986;21.452;2023-03-01T04:24:21;98725.31;;;8.12;83.32
10700;BME280;5401;41.986;21.452;2023-03-01T04:26:49;98734.38;;;8.18;84.23
10700;BME280;5401;41.986;21.452;2023-03-01T04:29:16;98722.91;;;8.17;83.36
10700;BME280;5401;41.986;21.452;2023-03-01T04:31:44;98730.34;;;8.21;83.66
10700;BME280;5401;41.986;21.452;2023-03-01T04:34:11;98726.66;;;8.22;84.58
10700;BME280;5401;41.986;21.452;2023-03-01T04:36:40;98717.63;;;8.23;84.79
10700;BME280;5401;41.986;21.452;2023-03-01T04:39:09;98721.97;;;8.24;84.77
10700;BME280;5401;41.986;21.452;2023-03-01T04:41:38;98720.13;;;8.25;84.35
10700;BME280;5401;41.986;21.452;2023-03-01T04:44:06;98730.91;;;8.38;84.62
10700;BME280;5401;41.986;21.452;2023-03-01T04:46:35;98729.47;;;8.35;84.10
10700;BME280;5401;41.986;21.452;2023-03-01T04:49:03;98729.84;;;8.32;84.72
10700;BME280;5401;41.986;21.452;2023-03-01T04:51:31;98726.28;;;8.25;84.14
10700;BME280;5401;41.986;21.452;2023-03-01T04:53:59;98733.53;;;8.31;84.77
10700;BME280;5401;41.986;21.452;2023-03-01T04:56:28;98736.84;;;8.33;84.35
10700;BME280;5401;41.986;21.452;2023-03-01T04:58:56;98750.81;;;8.35;84.13
10700;BME280;5401;41.986;21.452;2023-03-01T05:01:24;98751.63;;;8.36;84.56
10700;BME280;5401;41.986;21.452;2023-03-01T05:03:51;98744.91;;;8.40;84.44
10700;BME280;5401;41.986;21.452;2023-03-01T05:06:20;98754.34;;;8.42;83.85
10700;BME280;5401;41.986;21.452;2023-03-01T05:08:47;98758.75;;;8.50;83.99
10700;BME280;5401;41.986;21.452;2023-03-01T05:11:15;98756.72;;;8.52;83.95
10700;BME280;5401;41.986;21.452;2023-03-01T05:13:44;98759.03;;;8.54;84.04
10700;BME280;5401;41.986;21.452;2023-03-01T05:16:11;98752.09;;;8.60;84.41
10700;BME280;5401;41.986;21.452;2023-03-01T05:18:40;98725.34;;;8.53;83.77
10700;BME280;5401;41.986;21.452;2023-03-01T05:21:10;98760.41;;;8.71;83.30
10700;BME280;5401;41.986;21.452;2023-03-01T05:23:38;98754.56;;;8.82;83.89
10700;BME280;5401;41.986;21.452;2023-03-01T05:26:06;98738.66;;;8.74;83.77
10700;BME280;5401;41.986;21.452;2023-03-01T05:28:35;98764.34;;;8.96;84.24
10700;BME280;5401;41.986;21.452;2023-03-01T05:31:06;98771.19;;;9.05;82.99
10700;BME280;5401;41.986;21.452;2023-03-01T05:33:35;98771.19;;;9.05;84.22
10700;BME280;5401;41.986;21.452;2023-03-01T05:36:04;98773.84;;;9.05;83.77
10700;BME280;5401;41.986;21.452;2023-03-01T05:38:31;98750.75;;;8.91;84.12
10700;BME280;5401;41.986;21.452;2023-03-01T05:40:59;98765.91;;;8.90;83.95
10700;BME280;5401;41.986;21.452;2023-03-01T05:43:30;98756.41;;;8.82;83.08
10700;BME280;5401;41.986;21.452;2023-03-01T05:45:58;98744.78;;;8.68;83.50
10700;BME280;5401;41.986;21.452;2023-03-01T05:48:27;98767.91;;;8.82;84.13
10700;BME280;5401;41.986;21.452;2023-03-01T05:50:54;98755.59;;;8.81;83.65
10700;BME280;5401;41.986;21.452;2023-03-01T05:53:22;98753.97;;;8.87;84.19
10700;BME280;5401;41.986;21.452;2023-03-01T05:55:49;98770.00;;;8.87;84.20
10700;BME280;5401;41.986;21.452;2023-03-01T05:58:19;98760.75;;;8.83;83.85
10700;BME280;5401;41.986;21.452;2023-03-01T06:00:48;98754.97;;;8.79;83.03
10700;BME280;5401;41.986;21.452;2023-03-01T06:03:17;98754.31;;;8.77;84.23
10700;BME280;5401;41.986;21.452;2023-03-01T06:05:46;98753.06;;;8.73;83.93
10700;BME280;5401;41.986;21.452;2023-03-01T06:08:13;98774.97;;;8.89;84.07
10700;BME280;5401;41.986;21.452;2023-03-01T06:10:41;98770.84;;;8.87;83.90
10700;BME280;5401;41.986;21.452;2023-03-01T06:13:09;98781.31;;;8.88;82.92
10700;BME280;5401;41.986;21.452;2023-03-01T06:15:37;98774.09;;;8.83;82.98
10700;BME280;5401;41.986;21.452;2023-03-01T06:18:04;98783.16;;;8.88;83.83
10700;BME280;5401;41.986;21.452;2023-03-01T06:20:32;98779.84;;;8.86;82.85
10700;BME280;5401;41.986;21.452;2023-03-01T06:23:01;98775.50;;;8.79;83.91
10700;BME280;5401;41.986;21.452;2023-03-01T06:25:28;98775.84;;;8.76;83.52
10700;BME280;5401;41.986;21.452;2023-03-01T06:27:56;98753.34;;;8.64;83.90
10700;BME280;5401;41.986;21.452;2023-03-01T06:30:25;98773.31;;;8.68;83.30
10700;BME280;5401;41.986;21.452;2023-03-01T06:32:53;98765.50;;;8.66;82.64
10700;BME280;5401;41.986;21.452;2023-03-01T06:35:29;98786.94;;;8.73;83.47
10700;BME280;5401;41.986;21.452;2023-03-01T06:37:58;98770.13;;;8.58;82.75
10700;BME280;5401;41.986;21.452;2023-03-01T06:40:27;98775.91;;;8.61;82.47
10700;BME280;5401;41.986;21.452;2023-03-01T06:42:55;98751.44;;;8.37;82.53
10700;BME280;5401;41.986;21.452;2023-03-01T06:45:23;98781.38;;;8.53;82.52
10700;BME280;5401;41.986;21.452;2023-03-01T06:47:50;98772.16;;;8.56;82.43
10700;BME280;5401;41.986;21.452;2023-03-01T06:50:18;98790.72;;;8.64;83.40
10700;BME280;5401;41.986;21.452;2023-03-01T06:52:46;98791.63;;;8.71;83.32
10700;BME280;5401;41.986;21.452;2023-03-01T06:55:14;98784.44;;;8.71;83.73
10700;BME280;5401;41.986;21.452;2023-03-01T06:57:42;98786.34;;;8.77;82.54
10700;BME280;5401;41.986;21.452;2023-03-01T07:00:11;98783.50;;;8.79;82.95
10700;BME280;5401;41.986;21.452;2023-03-01T07:02:39;98784.91;;;8.75;82.93
10700;BME280;5401;41.986;21.452;2023-03-01T07:05:07;98779.47;;;8.68;82.39
10700;BME280;5401;41.986;21.452;2023-03-01T07:07:35;98780.44;;;8.61;82.78
10700;BME280;5401;41.986;21.452;2023-03-01T07:10:03;98793.03;;;8.67;82.43
10700;BME280;5401;41.986;21.452;2023-03-01T07:12:31;98800.47;;;8.71;82.62
10700;BME280;5401;41.986;21.452;2023-03-01T07:15:00;98761.34;;;8.43;83.11
10700;BME280;5401;41.986;21.452;2023-03-01T07:17:28;98781.56;;;8.52;83.12
10700;BME280;5401;41.986;21.452;2023-03-01T07:19:56;98805.47;;;8.60;82.78
10700;BME280;5401;41.986;21.452;2023-03-01T07:22:23;98794.91;;;8.52;83.31
10700;BME280;5401;41.986;21.452;2023-03-01T07:24:51;98785.06;;;8.53;84.02
10700;BME280;5401;41.986;21.452;2023-03-01T07:27:19;98789.84;;;8.57;84.05
10700;BME280;5401;41.986;21.452;2023-03-01T07:29:46;98784.88;;;8.54;83.44
10700;BME280;5401;41.986;21.452;2023-03-01T07:32:15;98782.84;;;8.56;84.08
10700;BME280;5401;41.986;21.452;2023-03-01T07:34:43;98798.09;;;8.62;83.98
10700;BME280;5401;41.986;21.452;2023-03-01T07:37:10;98797.16;;;8.69;83.64
10700;BME280;5401;41.986;21.452;2023-03-01T07:39:38;98798.31;;;8.60;83.36
10700;BME280;5401;41.986;21.452;2023-03-01T07:42:05;98783.53;;;8.44;83.84
10700;BME280;5401;41.986;21.452;2023-03-01T07:44:33;98802.72;;;8.53;84.33
10700;BME280;5401;41.986;21.452;2023-03-01T07:47:02;98807.59;;;8.50;83.92
10700;BME280;5401;41.986;21.452;2023-03-01T07:49:31;98795.47;;;8.48;84.75
10700;BME280;5401;41.986;21.452;2023-03-01T07:51:58;98803.75;;;8.53;85.57
10700;BME280;5401;41.986;21.452;2023-03-01T07:54:26;98789.78;;;8.51;85.64
10700;BME280;5401;41.986;21.452;2023-03-01T07:56:56;98793.91;;;8.53;85.80
10700;BME280;5401;41.986;21.452;2023-03-01T07:59:24;98795.34;;;8.55;84.88
10700;BME280;5401;41.986;21.452;2023-03-01T08:01:55;98792.31;;;8.58;85.05
10700;BME280;5401;41.986;21.452;2023-03-01T08:04:22;98800.97;;;8.60;86.17
10700;BME280;5401;41.986;21.452;2023-03-01T08:06:52;98787.16;;;8.57;85.95
10700;BME280;5401;41.986;21.452;2023-03-01T08:09:21;98779.69;;;8.67;86.44
10700;BME280;5401;41.986;21.452;2023-03-01T08:11:48;98787.16;;;8.78;85.88
10700;BME280;5401;41.986;21.452;2023-03-01T08:14:16;98791.13;;;8.82;86.19
10700;BME280;5401;41.986;21.452;2023-03-01T08:16:44;98793.84;;;8.88;85.20
10700;BME280;5401;41.986;21.452;2023-03-01T08:19:12;98750.50;;;8.65;85.95
10700;BME280;5401;41.986;21.452;2023-03-01T08:21:40;98788.56;;;8.94;85.60
10700;BME280;5401;41.986;21.452;2023-03-01T08:24:09;98793.53;;;8.97;86.52
10700;BME280;5401;41.986;21.452;2023-03-01T08:26:37;98787.50;;;8.89;86.38
10700;BME280;5401;41.986;21.452;2023-03-01T08:29:05;98787.56;;;8.95;86.57
10700;BME280;5401;41.986;21.452;2023-03-01T08:31:35;98785.38;;;8.85;86.13
10700;BME280;5401;41.986;21.452;2023-03-01T08:34:04;98797.03;;;8.77;85.84
10700;BME280;5401;41.986;21.452;2023-03-01T08:36:35;98792.50;;;8.78;86.17
10700;BME280;5401;41.986;21.452;2023-03-01T08:39:31;98773.88;;;8.63;86.75
10700;BME280;5401;41.986;21.452;2023-03-01T08:42:14;98790.25;;;8.75;86.92
10700;BME280;5401;41.986;21.452;2023-03-01T08:44:52;98783.97;;;8.88;87.08
10700;BME280;5401;41.986;21.452;2023-03-01T08:47:46;98771.97;;;8.99;86.66
10700;BME280;5401;41.986;21.452;2023-03-01T08:50:29;98733.47;;;8.87;86.36
10700;BME280;5401;41.986;21.452;2023-03-01T08:53:49;98769.94;;;9.01;86.71
10700;BME280;5401;41.986;21.452;2023-03-01T08:56:11;98774.81;;;9.18;86.39
10700;BME280;5401;41.986;21.452;2023-03-01T08:58:54;98775.34;;;9.34;85.90
10700;BME280;5401;41.986;21.452;2023-03-01T09:01:30;98783.28;;;9.55;86.18
10700;BME280;5401;41.986;21.452;2023-03-01T09:04:27;98767.47;;;9.54;85.82
10700;BME280;5401;41.986;21.452;2023-03-01T09:07:01;98782.38;;;9.75;86.18
10700;BME280;5401;41.986;21.452;2023-03-01T09:09:29;98780.19;;;9.85;84.97
10700;BME280;5401;41.986;21.452;2023-03-01T09:12:16;98781.94;;;9.99;84.64
10700;BME280;5401;41.986;21.452;2023-03-01T09:15:01;98751.06;;;9.90;84.32
10700;BME280;5401;41.986;21.452;2023-03-01T09:17:32;98773.41;;;10.16;84.54
10700;BME280;5401;41.986;21.452;2023-03-01T09:19:59;98792.59;;;10.32;84.33
10700;BME280;5401;41.986;21.452;2023-03-01T09:22:27;98763.53;;;10.23;83.93
10700;BME280;5401;41.986;21.452;2023-03-01T09:24:58;98761.47;;;10.25;83.23
10700;BME280;5401;41.986;21.452;2023-03-01T09:27:33;98776.13;;;10.35;83.60
10700;BME280;5401;41.986;21.452;2023-03-01T09:30:05;98774.69;;;10.39;83.23
10700;BME280;5401;41.986;21.452;2023-03-01T09:32:53;98767.28;;;10.41;82.76
10700;BME280;5401;41.986;21.452;2023-03-01T09:35:22;98745.06;;;10.34;83.27
10700;BME280;5401;41.986;21.452;2023-03-01T09:37:51;98762.38;;;10.51;83.07
10700;BME280;5401;41.986;21.452;2023-03-01T09:40:20;98736.84;;;10.42;82.94
10700;BME280;5401;41.986;21.452;2023-03-01T09:42:54;98746.13;;;10.59;82.58
10700;BME280;5401;41.986;21.452;2023-03-01T09:45:27;98745.94;;;10.73;82.87
10700;BME280;5401;41.986;21.452;2023-03-01T09:47:58;98744.53;;;10.84;82.31
10700;BME280;5401;41.986;21.452;2023-03-01T09:50:30;98736.47;;;10.90;82.49
10700;BME280;5401;41.986;21.452;2023-03-01T09:53:01;98751.94;;;11.20;81.87
10700;BME280;5401;41.986;21.452;2023-03-01T09:55:34;98711.78;;;11.07;81.23
10700;BME280;5401;41.986;21.452;2023-03-01T10:01:10;98731.97;;;11.29;81.05
10700;BME280;5401;41.986;21.452;2023-03-01T10:03:52;98672.59;;;11.00;81.15
10700;BME280;5401;41.986;21.452;2023-03-01T10:06:26;98692.19;;;11.20;80.54
10700;BME280;5401;41.986;21.452;2023-03-01T10:08:56;98731.56;;;11.51;80.34
10700;BME280;5401;41.986;21.452;2023-03-01T10:11:27;98708.22;;;11.39;80.92
10700;BME280;5401;41.986;21.452;2023-03-01T10:14:03;98716.09;;;11.53;80.17
10700;BME280;5401;41.986;21.452;2023-03-01T10:16:40;98736.25;;;11.69;80.80
10700;BME280;5401;41.986;21.452;2023-03-01T10:19:14;98710.69;;;11.66;80.60
10700;BME280;5401;41.986;21.452;2023-03-01T10:21:45;98684.09;;;11.39;80.34
10700;BME280;5401;41.986;21.452;2023-03-01T10:24:15;98728.47;;;11.48;80.44
10700;BME280;5401;41.986;21.452;2023-03-01T10:26:54;98710.13;;;11.19;80.47
10700;BME280;5401;41.986;21.452;2023-03-01T10:29:27;98719.16;;;11.25;80.67
10700;BME280;5401;41.986;21.452;2023-03-01T10:31:58;98718.53;;;11.36;80.39
10700;BME280;5401;41.986;21.452;2023-03-01T10:34:29;98714.84;;;11.43;81.18
10700;BME280;5401;41.986;21.452;2023-03-01T10:37:04;98731.09;;;11.61;80.83
10700;BME280;5401;41.986;21.452;2023-03-01T10:39:36;98715.81;;;11.61;79.77
10700;BME280;5401;41.986;21.452;2023-03-01T10:42:17;98719.13;;;11.70;80.40
10700;BME280;5401;41.986;21.452;2023-03-01T10:44:49;98708.63;;;11.62;80.54
10700;BME280;5401;41.986;21.452;2023-03-01T10:47:20;98720.75;;;11.71;80.16
10700;BME280;5401;41.986;21.452;2023-03-01T10:50:02;98717.25;;;11.76;79.58
10700;BME280;5401;41.986;21.452;2023-03-01T10:52:33;98718.69;;;11.73;79.81
10700;BME280;5401;41.986;21.452;2023-03-01T10:55:04;98697.31;;;11.47;79.28
10700;BME280;5401;41.986;21.452;2023-03-01T10:58:06;98695.88;;;11.44;79.49
10700;BME280;5401;41.986;21.452;2023-03-01T11:00:46;98660.81;;;11.33;79.80
10700;BME280;5401;41.986;21.452;2023-03-01T11:03:19;98702.22;;;11.63;79.88
10700;BME280;5401;41.986;21.452;2023-03-01T11:05:58;98703.88;;;11.57;79.73
10700;BME280;5401;41.986;21.452;2023-03-01T11:08:34;98692.75;;;11.41;79.86
10700;BME280;5401;41.986;21.452;2023-03-01T11:11:22;98685.34;;;11.30;79.55
10700;BME280;5401;41.986;21.452;2023-03-01T11:13:58;98708.22;;;11.33;79.73
10700;BME280;5401;41.986;21.452;2023-03-01T11:16:34;98673.84;;;11.04;79.66
10700;BME280;5401;41.986;21.452;2023-03-01T11:19:20;98689.91;;;11.10;80.09
10700;BME280;5401;41.986;21.452;2023-03-01T11:21:56;98671.78;;;11.00;79.91
10700;BME280;5401;41.986;21.452;2023-03-01T11:24:30;98683.94;;;11.08;80.06
10700;BME280;5401;41.986;21.452;2023-03-01T11:27:03;98681.88;;;11.04;80.36
10700;BME280;5401;41.986;21.452;2023-03-01T11:29:37;98669.09;;;11.06;80.39
10700;BME280;5401;41.986;21.452;2023-03-01T11:32:11;98652.59;;;11.02;80.30
10700;BME280;5401;41.986;21.452;2023-03-01T11:34:43;98660.25;;;11.05;79.97
10700;BME280;5401;41.986;21.452;2023-03-01T11:37:21;98647.88;;;11.04;80.33
10700;BME280;5401;41.986;21.452;2023-03-01T11:39:58;98651.56;;;11.10;80.32
10700;BME280;5401;41.986;21.452;2023-03-01T11:42:37;98602.56;;;10.90;80.00
10700;BME280;5401;41.986;21.452;2023-03-01T11:45:10;98650.09;;;11.27;80.05
10700;BME280;5401;41.986;21.452;2023-03-01T11:47:51;98636.31;;;11.17;79.69
10700;BME280;5401;41.986;21.452;2023-03-01T11:50:29;98610.81;;;10.95;79.80
10700;BME280;5401;41.986;21.452;2023-03-01T11:53:12;98652.00;;;11.13;79.72
10700;BME280;5401;41.986;21.452;2023-03-01T11:55:55;98642.09;;;11.07;79.88
10700;BME280;5401;41.986;21.452;2023-03-01T11:58:43;98653.84;;;11.19;80.18
10700;BME280;5401;41.986;21.452;2023-03-01T12:01:33;98634.69;;;11.09;79.72
10700;BME280;5401;41.986;21.452;2023-03-01T12:07:15;98650.72;;;11.35;80.22
10700;BME280;5401;41.986;21.452;2023-03-01T12:10:04;98630.94;;;11.23;80.01
10700;BME280;5401;41.986;21.452;2023-03-01T12:12:49;98637.75;;;11.26;80.02
10700;BME280;5401;41.986;21.452;2023-03-01T12:15:33;98649.50;;;11.31;79.71
10700;BME280;5401;41.986;21.452;2023-03-01T12:18:15;98653.00;;;11.25;80.26
10700;BME280;5401;41.986;21.452;2023-03-01T12:20:53;98647.22;;;11.22;80.11
10700;BME280;5401;41.986;21.452;2023-03-01T12:26:42;98622.53;;;11.13;79.79
10700;BME280;5401;41.986;21.452;2023-03-01T12:29:25;98634.84;;;11.34;80.14
10700;BME280;5401;41.986;21.452;2023-03-01T12:32:10;98637.69;;;11.45;79.77
10700;BME280;5401;41.986;21.452;2023-03-01T12:34:56;98620.16;;;11.42;79.86
10700;BME280;5401;41.986;21.452;2023-03-01T12:37:34;98623.47;;;11.51;80.09
10700;BME280;5401;41.986;21.452;2023-03-01T12:40:22;98618.09;;;11.51;79.62
10700;BME280;5401;41.986;21.452;2023-03-01T12:43:01;98612.53;;;11.52;79.86
10700;BME280;5401;41.986;21.452;2023-03-01T12:45:58;98618.75;;;11.46;79.58
10700;BME280;5401;41.986;21.452;2023-03-01T12:48:39;98596.91;;;11.30;80.13
10700;BME280;5401;41.986;21.452;2023-03-01T12:51:11;98567.06;;;11.14;79.72
10700;BME280;5401;41.986;21.452;2023-03-01T12:53:45;98617.72;;;11.47;80.27
10700;BME280;5401;41.986;21.452;2023-03-01T12:56:18;98620.38;;;11.54;79.73
10700;BME280;5401;41.986;21.452;2023-03-01T12:58:57;98585.75;;;11.39;79.46
10700;BME280;5401;41.986;21.452;2023-03-01T13:01:36;98593.38;;;11.36;79.91
10700;BME280;5401;41.986;21.452;2023-03-01T13:07:19;98596.25;;;11.41;80.09
10700;BME280;5401;41.986;21.452;2023-03-01T13:09:58;98599.56;;;11.43;80.09
10700;BME280;5401;41.986;21.452;2023-03-01T13:12:49;98579.56;;;11.33;79.99
10700;BME280;5401;41.986;21.452;2023-03-01T13:15:34;98598.53;;;11.44;79.43
10700;BME280;5401;41.986;21.452;2023-03-01T13:18:04;98604.44;;;11.59;80.14
10700;BME280;5401;41.986;21.452;2023-03-01T13:20:53;98580.78;;;11.43;80.15
10700;BME280;5401;41.986;21.452;2023-03-01T13:23:29;98572.13;;;11.47;79.43
10700;BME280;5401;41.986;21.452;2023-03-01T13:26:14;98535.91;;;11.26;79.58
10700;BME280;5401;41.986;21.452;2023-03-01T13:28:53;98582.19;;;11.58;79.73
10700;BME280;5401;41.986;21.452;2023-03-01T13:34:46;98592.44;;;11.74;79.21
10700;BME280;5401;41.986;21.452;2023-03-01T13:37:28;98539.31;;;11.52;79.48
10700;BME280;5401;41.986;21.452;2023-03-01T13:39:59;98538.72;;;11.50;79.79
10700;BME280;5401;41.986;21.452;2023-03-01T13:42:38;98556.13;;;11.72;80.27
10700;BME280;5401;41.986;21.452;2023-03-01T13:45:19;98565.31;;;11.88;80.29
10700;BME280;5401;41.986;21.452;2023-03-01T13:47:52;98572.25;;;12.02;79.54
10700;BME280;5401;41.986;21.452;2023-03-01T13:50:23;98552.91;;;11.94;79.33